logo
Rechercher aéroport 
image banner adimage banner adimage banner ad
image banner ad

TFFA - Desirade Grande Anse

Situé à Grande Anse, Guadeloupe

ICAO - TFFA, IATA - DSD

Données fournies par Airmate  

Information générale

Coordonnées: N16°17'49" W61°5'4"
Élévation : 9 feet MSL.
Variation magnétique : -15.06° East
Voir autres Aéroports à (unassigned)

Données opérationnelles

Special qualification required
Heure actuelle UTC:
Heure actuelle locale:
Météo à : TFFR - Pointe A Pitre Le Raizet ( 47 km )
METAR: TFFR 070100Z AUTO 11004KT CAVOK 23/20 Q1017
TAF: TAF TFFR 041700Z 0418/0518 10015KT 9999 SCT030 PROB30 TEMPO 0418/0424 10015G25KT 4000 SHRA SCT020TCU BECMG 0500/0502 10005KT BECMG 0511/0513 09015G25KT
Voir NOTAMs / SUP AIP / TFR affectant cet aéroport [VIEW]
Fréquences de communication: [VIEW]

Pistes:

Identifiant RWYQFULongueur (ft)Largeur (ft)SurfaceLDA (ft)
0971°198266ASPH1890
27251°198266ASPH1982

Coordonnées de l'aéroport

Adresse: Grande Anse Guadeloupe

Vue satellite de TFFA